createdAt,value
2018-03-20T00:02:22.459Z,-4.10
2018-03-20T00:04:50.110Z,-4.10
2018-03-20T00:07:17.872Z,-4.10
2018-03-20T00:09:45.542Z,-4.10
2018-03-20T00:12:13.319Z,-4.00
2018-03-20T00:14:40.948Z,-4.00
2018-03-20T00:17:08.552Z,-4.00
2018-03-20T00:19:36.939Z,-4.10
2018-03-20T00:22:04.560Z,-4.10
2018-03-20T00:24:32.175Z,-4.00
2018-03-20T00:26:59.813Z,-4.00
2018-03-20T00:29:27.479Z,-4.10
2018-03-20T00:31:55.103Z,-4.10
2018-03-20T00:34:22.843Z,-4.20
2018-03-20T00:36:50.498Z,-4.20
2018-03-20T00:39:18.123Z,-4.20
2018-03-20T00:41:45.895Z,-4.20
2018-03-20T00:44:13.498Z,-4.00
2018-03-20T00:46:41.672Z,-4.20
2018-03-20T00:49:09.298Z,-4.20
2018-03-20T00:51:37.014Z,-4.10
2018-03-20T00:54:04.790Z,-4.10
2018-03-20T00:56:32.446Z,-4.10
2018-03-20T00:59:00.436Z,-4.10
2018-03-20T01:01:29.452Z,-4.10
2018-03-20T01:03:57.062Z,-4.00
2018-03-20T01:06:25.470Z,-4.10
2018-03-20T01:08:53.148Z,-4.10
2018-03-20T01:11:20.800Z,-4.20
2018-03-20T01:13:48.422Z,-4.20
2018-03-20T01:16:16.138Z,-4.30
2018-03-20T01:18:43.907Z,-4.30
2018-03-20T01:21:11.672Z,-4.30
2018-03-20T01:23:39.308Z,-4.30
2018-03-20T01:26:06.949Z,-4.20
2018-03-20T01:28:34.574Z,-4.20
2018-03-20T01:31:02.244Z,-4.20
2018-03-20T01:33:30.128Z,-4.10
2018-03-20T01:35:58.406Z,-4.10
2018-03-20T01:38:26.029Z,-4.10
2018-03-20T01:40:54.441Z,-4.20
2018-03-20T01:43:23.314Z,-4.20
2018-03-20T01:45:51.209Z,-4.20
2018-03-20T01:48:18.941Z,-4.20
2018-03-20T01:50:47.342Z,-4.30
2018-03-20T01:53:19.865Z,-4.20
2018-03-20T01:55:47.775Z,-4.20
2018-03-20T01:58:16.335Z,-4.30
2018-03-20T02:00:43.974Z,-4.30
2018-03-20T02:03:11.637Z,-4.30
2018-03-20T02:05:40.085Z,-4.40
2018-03-20T02:08:08.517Z,-4.30
2018-03-20T02:10:36.139Z,-4.40
2018-03-20T02:13:04.887Z,-4.30
2018-03-20T02:15:32.500Z,-4.30
2018-03-20T02:18:00.881Z,-4.20
2018-03-20T02:20:29.291Z,-4.20
2018-03-20T02:22:56.916Z,-4.20
2018-03-20T02:25:24.561Z,-4.20
2018-03-20T02:27:52.292Z,-4.20
2018-03-20T02:30:20.269Z,-4.20
2018-03-20T02:32:47.890Z,-4.20
2018-03-20T02:35:16.315Z,-4.30
2018-03-20T02:37:43.976Z,-4.30
2018-03-20T02:40:11.694Z,-4.30
2018-03-20T02:42:39.332Z,-4.30
2018-03-20T02:45:06.948Z,-4.20
2018-03-20T02:47:35.347Z,-4.20
2018-03-20T02:50:02.961Z,-4.20
2018-03-20T02:52:30.810Z,-4.30
2018-03-20T02:54:58.433Z,-4.30
2018-03-20T02:57:26.788Z,-4.40
2018-03-20T02:59:54.412Z,-4.40
2018-03-20T03:02:22.025Z,-4.40
2018-03-20T03:04:49.665Z,-4.30
2018-03-20T03:07:17.277Z,-4.30
2018-03-20T03:09:45.689Z,-4.30
2018-03-20T03:12:13.331Z,-4.30
2018-03-20T03:14:41.750Z,-4.30
2018-03-20T03:17:09.421Z,-4.30
2018-03-20T03:19:37.030Z,-4.30
2018-03-20T03:22:04.661Z,-4.30
2018-03-20T03:24:32.303Z,-4.30
2018-03-20T03:26:59.920Z,-4.30
2018-03-20T03:29:27.557Z,-4.30
2018-03-20T03:31:55.186Z,-4.30
2018-03-20T03:34:23.598Z,-4.30
2018-03-20T03:36:51.265Z,-4.30
2018-03-20T03:39:18.940Z,-4.30
2018-03-20T03:41:46.556Z,-4.30
2018-03-20T03:44:14.938Z,-4.40
2018-03-20T03:46:43.465Z,-4.40
2018-03-20T03:49:11.065Z,-4.40
2018-03-20T03:51:40.332Z,-4.40
2018-03-20T03:54:07.944Z,-4.40
2018-03-20T03:56:35.584Z,-4.40
2018-03-20T03:59:03.336Z,-4.40
2018-03-20T04:01:30.955Z,-4.50
2018-03-20T04:03:58.584Z,-4.50
2018-03-20T04:06:26.233Z,-4.40
2018-03-20T04:09:01.847Z,-4.40
2018-03-20T04:11:29.508Z,-4.40
2018-03-20T04:13:57.886Z,-4.40
2018-03-20T04:16:25.523Z,-4.50
2018-03-20T04:18:53.148Z,-4.40
2018-03-20T04:21:20.828Z,-4.40
2018-03-20T04:23:48.494Z,-4.40
2018-03-20T04:26:16.166Z,-4.40
2018-03-20T04:28:43.832Z,-4.40
2018-03-20T04:31:11.499Z,-4.40
2018-03-20T04:33:40.009Z,-4.40
2018-03-20T04:36:07.957Z,-4.40
2018-03-20T04:38:35.564Z,-4.40
2018-03-20T04:41:03.204Z,-4.40
2018-03-20T04:43:30.858Z,-4.40
2018-03-20T04:45:58.475Z,-4.40
2018-03-20T04:48:26.097Z,-4.30
2018-03-20T04:50:53.721Z,-4.40
2018-03-20T04:53:22.465Z,-4.40
2018-03-20T04:55:50.071Z,-4.50
2018-03-20T04:58:18.464Z,-4.40
2018-03-20T05:00:46.873Z,-4.40
2018-03-20T05:03:15.249Z,-4.40
2018-03-20T05:05:42.897Z,-4.50
2018-03-20T05:08:11.313Z,-4.50
2018-03-20T05:10:38.975Z,-4.50
2018-03-20T05:13:06.610Z,-4.50
2018-03-20T05:15:34.996Z,-4.40
2018-03-20T05:18:03.625Z,-4.50
2018-03-20T05:20:43.931Z,-4.50
2018-03-20T05:26:17.000Z,-4.50
2018-03-20T05:28:44.835Z,-4.50
2018-03-20T05:31:12.454Z,-4.60
2018-03-20T05:33:40.413Z,-4.50
2018-03-20T05:36:08.151Z,-4.60
2018-03-20T05:38:35.781Z,-4.60
2018-03-20T05:41:04.265Z,-4.60
2018-03-20T05:43:32.668Z,-4.60
2018-03-20T05:46:00.342Z,-4.60
2018-03-20T05:48:39.822Z,-4.60
2018-03-20T05:51:22.269Z,-4.60
2018-03-20T05:53:49.912Z,-4.60
2018-03-20T05:56:17.674Z,-4.60
2018-03-20T05:58:45.288Z,-4.60
2018-03-20T06:01:12.932Z,-4.60
2018-03-20T06:03:41.316Z,-4.50
2018-03-20T06:06:09.720Z,-4.40
2018-03-20T06:08:37.380Z,-4.50
2018-03-20T06:11:05.104Z,-4.40
2018-03-20T06:13:32.766Z,-4.40
2018-03-20T06:16:00.437Z,-4.30
2018-03-20T06:18:28.110Z,-4.30
2018-03-20T06:20:55.748Z,-4.30
2018-03-20T06:23:23.379Z,-4.30
2018-03-20T06:25:51.144Z,-4.30
2018-03-20T06:28:19.549Z,-4.30
2018-03-20T06:30:47.216Z,-4.40
2018-03-20T06:33:14.880Z,-4.40
2018-03-20T06:35:42.503Z,-4.40
2018-03-20T06:38:10.897Z,-4.40
2018-03-20T06:40:39.323Z,-4.30
2018-03-20T06:43:06.992Z,-4.40
2018-03-20T06:45:34.775Z,-4.30
2018-03-20T06:48:02.377Z,-4.30
2018-03-20T06:50:30.820Z,-4.20
2018-03-20T06:52:58.568Z,-4.20
2018-03-20T06:55:26.333Z,-4.30
2018-03-20T06:57:53.960Z,-4.30
2018-03-20T07:00:22.631Z,-4.20
2018-03-20T07:02:51.030Z,-4.20
2018-03-20T07:05:18.643Z,-4.20
2018-03-20T07:07:46.303Z,-4.20
2018-03-20T07:10:13.938Z,-4.10
2018-03-20T07:12:41.611Z,-4.20
2018-03-20T07:15:10.021Z,-4.10
2018-03-20T07:17:37.693Z,-4.10
2018-03-20T07:20:05.358Z,-4.00
2018-03-20T07:22:32.999Z,-3.90
2018-03-20T07:25:01.530Z,-3.90
2018-03-20T07:27:29.122Z,-3.90
2018-03-20T07:29:56.831Z,-3.90
2018-03-20T07:32:25.207Z,-3.80
2018-03-20T07:34:52.897Z,-3.80
2018-03-20T07:37:20.525Z,-3.90
2018-03-20T07:39:48.940Z,-3.90
2018-03-20T07:42:16.595Z,-3.90
2018-03-20T07:44:44.225Z,-3.80
2018-03-20T07:47:13.390Z,-3.90
2018-03-20T07:49:40.989Z,-3.90
2018-03-20T07:52:08.634Z,-3.90
2018-03-20T07:54:36.258Z,-3.90
2018-03-20T07:57:12.833Z,-4.00
2018-03-20T07:59:40.486Z,-3.90
2018-03-20T08:02:08.968Z,-4.00
2018-03-20T08:04:37.511Z,-3.90
2018-03-20T08:07:05.138Z,-3.90
2018-03-20T08:09:32.814Z,-4.00
2018-03-20T08:12:00.489Z,-3.90
2018-03-20T08:14:28.533Z,-3.90
2018-03-20T08:16:56.925Z,-3.90
2018-03-20T08:19:25.474Z,-3.90
2018-03-20T08:21:53.084Z,-4.00
2018-03-20T08:24:20.710Z,-3.90
2018-03-20T08:26:48.403Z,-3.90
2018-03-20T08:29:16.868Z,-3.90
2018-03-20T08:31:44.464Z,-3.90
2018-03-20T08:34:12.859Z,-3.80
2018-03-20T08:36:40.530Z,-3.80
2018-03-20T08:39:08.254Z,-3.70
2018-03-20T08:41:36.631Z,-3.60
2018-03-20T08:44:04.553Z,-3.60
2018-03-20T08:46:32.215Z,-3.60
2018-03-20T08:48:59.816Z,-3.50
2018-03-20T08:51:27.556Z,-3.50
2018-03-20T08:53:55.183Z,-3.50
2018-03-20T08:56:22.887Z,-3.40
2018-03-20T08:58:50.560Z,-3.50
2018-03-20T09:01:18.554Z,-3.40
2018-03-20T09:03:46.197Z,-3.20
2018-03-20T09:06:13.805Z,-3.20
2018-03-20T09:08:41.450Z,-3.10
2018-03-20T09:11:09.096Z,-3.00
2018-03-20T09:13:36.719Z,-3.00
2018-03-20T09:16:04.348Z,-2.90
2018-03-20T09:18:32.316Z,-3.00
2018-03-20T09:20:59.926Z,-3.10
2018-03-20T09:23:28.318Z,-3.00
2018-03-20T09:25:56.748Z,-3.00
2018-03-20T09:28:25.152Z,-2.90
2018-03-20T09:30:52.793Z,-2.90
2018-03-20T09:33:20.406Z,-2.90
2018-03-20T09:35:48.940Z,-3.00
2018-03-20T09:38:16.533Z,-3.00
2018-03-20T09:40:47.545Z,-2.90
2018-03-20T09:43:15.176Z,-2.90
2018-03-20T09:45:42.804Z,-2.80
2018-03-20T09:48:10.461Z,-2.80
2018-03-20T09:50:38.073Z,-2.60
2018-03-20T09:53:06.113Z,-2.50
2018-03-20T09:55:33.753Z,-2.50
2018-03-20T09:58:01.372Z,-2.60
2018-03-20T10:00:29.772Z,-2.60
2018-03-20T10:02:58.150Z,-2.60
2018-03-20T10:05:26.569Z,-2.50
2018-03-20T10:07:54.192Z,-2.50
2018-03-20T10:10:21.835Z,-2.60
2018-03-20T10:12:49.459Z,-2.70
2018-03-20T10:15:17.099Z,-2.70
2018-03-20T10:17:45.619Z,-2.60
2018-03-20T10:20:13.354Z,-2.60
2018-03-20T10:22:41.833Z,-2.60
2018-03-20T10:25:09.456Z,-2.60
2018-03-20T10:27:37.134Z,-2.60
2018-03-20T10:30:04.761Z,-2.50
2018-03-20T10:32:32.438Z,-2.50
2018-03-20T10:35:00.223Z,-2.50
2018-03-20T10:37:27.955Z,-2.60
2018-03-20T10:39:56.583Z,-2.60
2018-03-20T10:42:24.201Z,-2.60
2018-03-20T10:44:52.630Z,-2.60
2018-03-20T10:47:20.248Z,-2.60
2018-03-20T10:49:48.177Z,-2.50
2018-03-20T10:52:15.986Z,-2.40
2018-03-20T10:54:44.362Z,-2.30
2018-03-20T10:57:12.775Z,-2.10
2018-03-20T10:59:40.466Z,-2.20
2018-03-20T11:02:13.716Z,-2.10
2018-03-20T11:04:41.342Z,-1.90
2018-03-20T11:07:09.291Z,-1.70
2018-03-20T11:09:36.926Z,-1.60
2018-03-20T11:12:05.302Z,-1.30
2018-03-20T11:14:32.946Z,-1.30
2018-03-20T11:17:00.583Z,-1.20
2018-03-20T11:19:28.224Z,-1.10
2018-03-20T11:21:55.842Z,-1.20
2018-03-20T11:24:23.470Z,-1.20
2018-03-20T11:26:51.136Z,-1.30
2018-03-20T11:29:18.755Z,-1.40
2018-03-20T11:31:46.376Z,-1.60
2018-03-20T11:34:14.171Z,-1.60
2018-03-20T11:36:41.814Z,-1.50
2018-03-20T11:39:09.538Z,-1.30
2018-03-20T11:41:37.972Z,-0.80
2018-03-20T11:44:05.633Z,-0.80
2018-03-20T11:46:33.224Z,-0.60
2018-03-20T11:49:00.863Z,-0.60
2018-03-20T11:51:28.482Z,-0.70
2018-03-20T11:53:56.112Z,-0.60
2018-03-20T11:56:23.856Z,-0.50
2018-03-20T11:58:51.601Z,-0.30
2018-03-20T12:01:19.987Z,0.30
2018-03-20T12:03:48.375Z,-0.30
2018-03-20T12:06:16.975Z,0.00
2018-03-20T12:08:49.763Z,0.00
2018-03-20T12:11:17.405Z,0.40
2018-03-20T12:13:45.794Z,-0.50
2018-03-20T12:16:13.471Z,-0.50
2018-03-20T12:18:41.088Z,-0.50
2018-03-20T12:21:08.725Z,-0.60
2018-03-20T12:23:36.392Z,-0.50
2018-03-20T12:26:04.051Z,-0.10
2018-03-20T12:28:32.029Z,0.50
2018-03-20T12:30:59.890Z,1.10
2018-03-20T12:33:27.500Z,0.50
2018-03-20T12:35:55.878Z,0.40
2018-03-20T12:38:23.608Z,0.30
2018-03-20T12:40:51.617Z,0.40
2018-03-20T12:43:19.255Z,0.40
2018-03-20T12:45:46.880Z,1.00
2018-03-20T12:48:14.517Z,1.00
2018-03-20T12:50:42.132Z,0.80
2018-03-20T12:53:10.532Z,0.00
2018-03-20T12:55:38.228Z,-0.10
2018-03-20T12:58:06.129Z,0.20
2018-03-20T13:00:33.836Z,0.30
2018-03-20T13:03:01.456Z,0.50
2018-03-20T13:05:29.114Z,0.50
2018-03-20T13:07:56.794Z,0.20
2018-03-20T13:10:24.489Z,0.10
2018-03-20T13:12:52.883Z,0.10
2018-03-20T13:15:20.507Z,0.10
2018-03-20T13:17:48.937Z,-0.10
2018-03-20T13:20:16.547Z,-0.20
2018-03-20T13:22:44.275Z,-0.40
2018-03-20T13:25:11.912Z,-0.60
2018-03-20T13:27:40.302Z,-0.60
2018-03-20T13:30:08.791Z,-0.70
2018-03-20T13:32:37.174Z,-0.70
2018-03-20T13:35:04.859Z,-0.70
2018-03-20T13:37:32.470Z,-0.40
2018-03-20T13:40:00.111Z,-0.30
2018-03-20T13:42:27.720Z,0.40
2018-03-20T13:44:55.319Z,0.90
2018-03-20T13:47:22.961Z,1.30
2018-03-20T13:49:51.445Z,1.20
2018-03-20T13:52:19.162Z,1.20
2018-03-20T13:54:46.796Z,1.20
2018-03-20T13:57:14.422Z,0.70
2018-03-20T13:59:42.047Z,0.60
2018-03-20T14:02:09.705Z,0.50
2018-03-20T14:04:37.525Z,-0.10
2018-03-20T14:07:05.259Z,-0.10
2018-03-20T14:09:33.032Z,-0.10
2018-03-20T14:12:00.662Z,-0.10
2018-03-20T14:14:29.167Z,0.00
2018-03-20T14:16:56.800Z,0.00
2018-03-20T14:19:24.442Z,-0.20
2018-03-20T14:21:52.292Z,-0.50
2018-03-20T14:24:19.930Z,-0.70
2018-03-20T14:26:47.570Z,-0.40
2018-03-20T14:29:15.190Z,-0.30
2018-03-20T14:31:47.136Z,-0.20
2018-03-20T14:34:14.756Z,-0.20
2018-03-20T14:36:43.142Z,-0.60
2018-03-20T14:39:11.668Z,-0.60
2018-03-20T14:41:39.294Z,-0.60
2018-03-20T14:44:06.922Z,-0.40
2018-03-20T14:46:34.589Z,0.00
2018-03-20T14:49:02.166Z,0.20
2018-03-20T14:51:29.828Z,0.20
2018-03-20T14:53:57.455Z,0.30
2018-03-20T14:56:25.070Z,0.10
2018-03-20T14:58:52.722Z,-0.10
2018-03-20T15:01:20.345Z,-0.10
2018-03-20T15:03:48.664Z,0.00
2018-03-20T15:06:16.280Z,0.10
2018-03-20T15:08:44.141Z,0.10
2018-03-20T15:11:11.875Z,0.10
2018-03-20T15:13:39.519Z,-0.10
2018-03-20T15:16:07.339Z,0.00
2018-03-20T15:18:34.952Z,0.20
2018-03-20T15:21:02.641Z,0.00
2018-03-20T15:23:30.339Z,0.00
2018-03-20T15:25:57.979Z,-0.10
2018-03-20T15:28:25.625Z,-0.10
2018-03-20T15:30:53.236Z,-0.30
2018-03-20T15:33:20.864Z,-0.20
2018-03-20T15:35:48.484Z,-0.20
2018-03-20T15:38:16.353Z,-0.30
2018-03-20T15:40:44.731Z,-0.40
2018-03-20T15:43:12.432Z,-0.40
2018-03-20T15:45:40.107Z,-0.30
2018-03-20T15:48:07.744Z,-0.40
2018-03-20T15:50:36.172Z,-0.30
2018-03-20T15:53:03.825Z,-0.30
2018-03-20T15:55:31.494Z,-0.40
2018-03-20T15:57:59.134Z,-0.60
2018-03-20T16:00:27.620Z,-0.50
2018-03-20T16:02:56.052Z,-0.50
2018-03-20T16:05:23.798Z,-0.50
2018-03-20T16:07:51.472Z,-0.50
2018-03-20T16:10:19.132Z,-0.60
2018-03-20T16:12:46.954Z,-0.60
2018-03-20T16:15:14.770Z,-0.60
2018-03-20T16:17:42.448Z,-0.70
2018-03-20T16:20:10.104Z,-0.70
2018-03-20T16:22:37.779Z,-0.70
2018-03-20T16:25:05.509Z,-0.70
2018-03-20T16:27:33.931Z,-0.80
2018-03-20T16:30:01.552Z,-0.80
2018-03-20T16:32:29.947Z,-0.80
2018-03-20T16:34:58.341Z,-0.10
2018-03-20T16:37:26.013Z,-0.20
2018-03-20T16:39:53.628Z,-0.20
2018-03-20T16:42:21.296Z,-0.40
2018-03-20T16:44:49.134Z,-0.40
2018-03-20T16:47:16.754Z,-0.50
2018-03-20T16:49:44.418Z,-0.70
2018-03-20T16:52:13.539Z,-0.90
2018-03-20T16:54:41.971Z,-0.90
2018-03-20T16:57:09.628Z,-0.90
2018-03-20T16:59:37.380Z,-0.90
2018-03-20T17:02:05.130Z,-0.90
2018-03-20T17:04:32.831Z,-0.90
2018-03-20T17:07:00.524Z,-0.90
2018-03-20T17:09:28.457Z,-1.20
2018-03-20T17:11:56.143Z,-1.30
2018-03-20T17:14:23.843Z,-1.30
2018-03-20T17:16:51.515Z,-1.30
2018-03-20T17:19:19.910Z,-1.20
2018-03-20T17:21:49.441Z,-1.20
2018-03-20T17:24:17.109Z,-1.20
2018-03-20T17:26:44.783Z,-1.20
2018-03-20T17:29:12.492Z,-1.30
2018-03-20T17:31:40.167Z,-1.40
2018-03-20T17:34:08.623Z,-1.50
2018-03-20T17:36:36.279Z,-1.50
2018-03-20T17:39:04.124Z,-1.50
2018-03-20T17:41:31.828Z,-1.60
2018-03-20T17:43:59.473Z,-1.60
2018-03-20T17:46:27.349Z,-1.60
2018-03-20T17:48:55.069Z,-1.60
2018-03-20T17:51:22.931Z,-1.70
2018-03-20T17:53:50.670Z,-1.70
2018-03-20T17:56:18.472Z,-1.70
2018-03-20T17:58:46.124Z,-1.70
2018-03-20T18:01:13.976Z,-1.80
2018-03-20T18:03:41.661Z,-1.80
2018-03-20T18:06:09.601Z,-1.90
2018-03-20T18:08:37.334Z,-2.00
2018-03-20T18:11:06.170Z,-2.00
2018-03-20T18:13:33.864Z,-2.00
2018-03-20T18:16:01.716Z,-2.00
2018-03-20T18:18:29.577Z,-2.10
2018-03-20T18:20:57.331Z,-2.10
2018-03-20T18:23:25.127Z,-2.10
2018-03-20T18:25:52.861Z,-2.20
2018-03-20T18:28:20.670Z,-2.30
2018-03-20T18:30:49.220Z,-2.30
2018-03-20T18:33:17.729Z,-2.40
2018-03-20T18:35:45.470Z,-2.40
2018-03-20T18:38:13.248Z,-2.40
2018-03-20T18:40:46.814Z,-2.40
2018-03-20T18:43:14.642Z,-2.50
2018-03-20T18:45:42.410Z,-2.60
2018-03-20T18:48:10.165Z,-2.60
2018-03-20T18:50:37.945Z,-2.70
2018-03-20T18:53:05.647Z,-2.70
2018-03-20T18:55:33.598Z,-2.70
2018-03-20T18:58:01.458Z,-2.70
2018-03-20T19:00:29.334Z,-2.70
2018-03-20T19:02:57.219Z,-2.70
2018-03-20T19:05:25.263Z,-2.70
2018-03-20T19:07:53.106Z,-2.80
2018-03-20T19:10:20.768Z,-2.80
2018-03-20T19:12:49.256Z,-2.80
2018-03-20T19:15:17.829Z,-2.80
2018-03-20T19:17:47.308Z,-2.80
2018-03-20T19:20:15.215Z,-2.80
2018-03-20T19:22:43.790Z,-2.90
2018-03-20T19:25:11.540Z,-3.00
2018-03-20T19:27:39.441Z,-3.00
2018-03-20T19:30:08.207Z,-3.10
2018-03-20T19:32:36.123Z,-3.10
2018-03-20T19:35:04.360Z,-3.00
2018-03-20T19:37:32.330Z,-3.10
2018-03-20T19:40:01.457Z,-3.00
2018-03-20T19:42:29.606Z,-3.10
2018-03-20T19:44:57.577Z,-3.10
2018-03-20T19:47:26.427Z,-3.10
2018-03-20T19:49:55.161Z,-3.10
2018-03-20T19:52:23.176Z,-3.10
2018-03-20T19:54:52.666Z,-3.10
2018-03-20T19:57:21.229Z,-3.10
2018-03-20T19:59:49.118Z,-3.20
2018-03-20T20:02:17.114Z,-3.20
2018-03-20T20:04:45.149Z,-3.20
2018-03-20T20:07:14.255Z,-3.20
2018-03-20T20:09:42.419Z,-3.20
2018-03-20T20:12:10.309Z,-3.30
2018-03-20T20:14:38.887Z,-3.30
2018-03-20T20:17:06.777Z,-3.40
2018-03-20T20:19:34.492Z,-3.40
2018-03-20T20:22:03.549Z,-3.50
2018-03-20T20:24:31.453Z,-3.50
2018-03-20T20:27:00.204Z,-3.60
2018-03-20T20:29:28.180Z,-3.60
2018-03-20T20:31:56.214Z,-3.70
2018-03-20T20:34:25.451Z,-3.70
2018-03-20T20:36:54.382Z,-3.60
2018-03-20T20:39:23.144Z,-3.60
2018-03-20T20:41:51.715Z,-3.60
2018-03-20T20:44:19.483Z,-3.60
2018-03-20T20:46:47.229Z,-3.50
2018-03-20T20:49:15.736Z,-3.50
2018-03-20T20:51:43.624Z,-3.50
2018-03-20T20:54:11.380Z,-3.50
2018-03-20T20:56:39.770Z,-3.50
2018-03-20T20:59:07.550Z,-3.50
2018-03-20T21:01:35.262Z,-3.50
2018-03-20T21:04:03.037Z,-3.50
2018-03-20T21:06:31.558Z,-3.50
2018-03-20T21:08:59.274Z,-3.50
2018-03-20T21:11:27.733Z,-3.50
2018-03-20T21:13:55.545Z,-3.50
2018-03-20T21:16:24.008Z,-3.40
2018-03-20T21:18:51.767Z,-3.40
2018-03-20T21:21:19.495Z,-3.40
2018-03-20T21:23:47.268Z,-3.40
2018-03-20T21:26:15.005Z,-3.50
2018-03-20T21:28:43.637Z,-3.40
2018-03-20T21:31:11.334Z,-3.50
2018-03-20T21:33:39.031Z,-3.50
2018-03-20T21:36:07.554Z,-3.40
2018-03-20T21:38:35.258Z,-3.50
2018-03-20T21:41:03.810Z,-3.40
2018-03-20T21:43:31.518Z,-3.40
2018-03-20T21:45:59.171Z,-3.40
2018-03-20T21:48:27.263Z,-3.40
2018-03-20T21:50:55.701Z,-3.40
2018-03-20T21:53:23.404Z,-3.40
2018-03-20T21:55:51.057Z,-3.40
2018-03-20T21:58:18.853Z,-3.40
2018-03-20T22:00:46.580Z,-3.40
2018-03-20T22:03:14.245Z,-3.40
2018-03-20T22:05:43.043Z,-3.40
2018-03-20T22:08:10.668Z,-3.40
2018-03-20T22:10:39.061Z,-3.40
2018-03-20T22:13:07.477Z,-3.40
2018-03-20T22:15:35.101Z,-3.40
2018-03-20T22:18:03.628Z,-3.40
2018-03-20T22:20:31.260Z,-3.40
2018-03-20T22:22:59.682Z,-3.40
2018-03-20T22:25:27.353Z,-3.40
2018-03-20T22:27:55.010Z,-3.40
2018-03-20T22:30:22.686Z,-3.40
2018-03-20T22:32:50.293Z,-3.40
2018-03-20T22:35:18.005Z,-3.30
2018-03-20T22:37:45.773Z,-3.30
2018-03-20T22:40:13.673Z,-3.30
2018-03-20T22:42:41.309Z,-3.30
2018-03-20T22:45:08.996Z,-3.30
2018-03-20T22:47:36.673Z,-3.30
2018-03-20T22:50:04.316Z,-3.40
2018-03-20T22:52:32.313Z,-3.30
2018-03-20T22:55:01.467Z,-3.20
2018-03-20T22:57:30.164Z,-3.20
2018-03-20T22:59:57.820Z,-3.20
2018-03-20T23:02:26.415Z,-3.20
2018-03-20T23:04:54.442Z,-3.20
2018-03-20T23:07:22.186Z,-3.20
2018-03-20T23:09:49.824Z,-3.20
2018-03-20T23:12:18.251Z,-3.20
2018-03-20T23:14:45.852Z,-3.20
2018-03-20T23:17:14.252Z,-3.20
2018-03-20T23:19:42.703Z,-3.20
2018-03-20T23:22:10.534Z,-3.20
2018-03-20T23:24:38.230Z,-3.20
2018-03-20T23:27:05.870Z,-3.20
2018-03-20T23:29:33.530Z,-3.20
2018-03-20T23:32:03.551Z,-3.20
2018-03-20T23:34:31.376Z,-3.30
2018-03-20T23:37:00.639Z,-3.40
2018-03-20T23:39:28.273Z,-3.50
2018-03-20T23:41:56.688Z,-3.60
2018-03-20T23:44:24.314Z,-3.50
2018-03-20T23:46:52.724Z,-3.50
2018-03-20T23:49:20.828Z,-3.60
2018-03-20T23:51:48.455Z,-3.50
2018-03-20T23:54:16.139Z,-3.50
2018-03-20T23:56:43.791Z,-3.50
2018-03-20T23:59:11.472Z,-3.50
